Time;durP1;ratioP1;P1;durP2;ratioP2;P2;SDS_P1;SDS_P2;PMS_P1;PMS_P2;Temp;Humidity;BMP_temperature;BMP_pressure;BME280_temperature;BME280_humidity;BME280_pressure;Samples;Min_cycle;Max_cycle;Signal;HPM_P1;HPM_P2
2021/12/30 00:02:02;;;;;;;10.27;6.73;;;10.60;99.90;;;;;;10432391;28;20220;-75
2021/12/30 00:07:04;;;;;;;13.57;8.17;;;10.60;99.90;;;;;;10425642;28;20212;-74
2021/12/30 00:12:05;;;;;;;13.53;8.60;;;10.60;99.90;;;;;;10442339;28;20223;-74
2021/12/30 00:17:06;;;;;;;12.47;6.90;;;10.60;99.90;;;;;;10437045;28;20229;-75
2021/12/30 00:22:07;;;;;;;5.37;3.87;;;10.60;99.90;;;;;;10432388;28;20222;-74
2021/12/30 00:27:07;;;;;;;7.67;4.03;;;10.70;99.90;;;;;;10429778;28;20228;-73
2021/12/30 00:32:08;;;;;;;4.57;3.40;;;10.70;99.90;;;;;;10431459;28;20788;-73
2021/12/30 00:37:09;;;;;;;4.67;2.37;;;10.70;99.90;;;;;;10431700;28;20232;-72
2021/12/30 00:42:09;;;;;;;4.53;2.93;;;10.70;99.90;;;;;;10431364;28;20220;-72
2021/12/30 00:47:10;;;;;;;4.53;1.90;;;10.80;99.90;;;;;;10423081;28;20224;-73
2021/12/30 00:52:10;;;;;;;3.93;1.70;;;10.80;99.90;;;;;;10436930;28;20220;-73
2021/12/30 00:57:11;;;;;;;5.47;1.57;;;10.80;99.90;;;;;;10427011;28;20744;-73
2021/12/30 01:02:12;;;;;;;6.73;1.93;;;10.80;99.90;;;;;;10432992;28;20254;-73
2021/12/30 01:07:12;;;;;;;7.43;1.60;;;10.70;99.90;;;;;;10428602;28;20228;-73
2021/12/30 01:12:13;;;;;;;9.50;2.00;;;10.70;99.90;;;;;;10423959;28;20224;-74
2021/12/30 01:17:21;;;;;;;8.07;1.60;;;10.60;99.90;;;;;;10424993;28;20228;-75
2021/12/30 01:22:25;;;;;;;7.23;1.80;;;10.60;99.90;;;;;;10430869;28;20231;-74
2021/12/30 01:27:26;;;;;;;11.30;1.83;;;10.50;99.90;;;;;;10422128;28;20259;-75
2021/12/30 01:32:26;;;;;;;9.40;2.30;;;10.50;99.90;;;;;;10426080;28;20246;-74
2021/12/30 01:37:27;;;;;;;13.63;2.90;;;10.60;99.90;;;;;;10430993;28;20228;-73
2021/12/30 01:42:30;;;;;;;17.80;2.40;;;10.70;99.90;;;;;;10425820;28;20222;-75
2021/12/30 01:47:30;;;;;;;9.30;2.50;;;10.70;99.90;;;;;;10424397;28;20605;-75
2021/12/30 01:52:31;;;;;;;13.03;2.30;;;10.80;99.90;;;;;;10427278;28;20211;-75
2021/12/30 01:57:32;;;;;;;8.47;1.83;;;10.70;99.90;;;;;;10432323;28;20371;-75
2021/12/30 02:02:33;;;;;;;11.53;1.93;;;10.70;99.90;;;;;;10429646;28;20688;-76
2021/12/30 02:07:34;;;;;;;5.37;1.60;;;10.60;99.90;;;;;;10419596;28;20295;-75
2021/12/30 02:12:36;;;;;;;6.07;1.57;;;10.60;99.90;;;;;;10423615;28;20582;-73
2021/12/30 02:17:38;;;;;;;10.70;2.00;;;10.60;99.90;;;;;;10430090;28;20232;-73
2021/12/30 02:22:39;;;;;;;9.63;2.03;;;10.70;99.90;;;;;;10437979;28;20223;-73
2021/12/30 02:27:39;;;;;;;7.03;2.17;;;10.80;99.90;;;;;;10428290;28;20218;-72
2021/12/30 02:32:41;;;;;;;11.10;2.57;;;10.80;99.90;;;;;;10431123;28;20308;-74
2021/12/30 02:37:42;;;;;;;11.53;3.70;;;10.90;99.90;;;;;;10435344;28;20242;-75
2021/12/30 02:42:42;;;;;;;7.40;2.80;;;10.90;99.90;;;;;;10440385;28;20317;-73
2021/12/30 02:47:43;;;;;;;9.10;2.63;;;10.90;99.90;;;;;;10429218;28;20233;-72
2021/12/30 02:52:44;;;;;;;8.23;1.97;;;10.80;99.90;;;;;;10434521;28;20701;-72
2021/12/30 02:57:44;;;;;;;5.73;2.50;;;10.80;99.90;;;;;;10420261;28;20658;-72
2021/12/30 03:02:45;;;;;;;9.87;2.53;;;10.70;99.90;;;;;;10434586;28;20223;-72
2021/12/30 03:07:46;;;;;;;15.10;2.97;;;10.70;99.90;;;;;;10435020;28;20219;-72
2021/12/30 03:12:52;;;;;;;9.90;2.03;;;10.80;99.90;;;;;;10428285;28;20707;-73
2021/12/30 03:17:53;;;;;;;15.10;2.30;;;10.90;99.90;;;;;;10426527;28;20487;-72
2021/12/30 03:22:54;;;;;;;8.93;2.50;;;10.90;99.90;;;;;;10429536;28;20229;-72
2021/12/30 03:27:55;;;;;;;11.37;2.10;;;11.00;99.90;;;;;;10433332;28;20358;-73
2021/12/30 03:32:55;;;;;;;13.83;2.23;;;11.00;99.90;;;;;;10425494;28;20235;-72
2021/12/30 03:37:57;;;;;;;9.73;2.43;;;11.10;99.90;;;;;;10434884;28;20252;-71
2021/12/30 03:42:57;;;;;;;13.73;1.80;;;11.10;99.90;;;;;;10429230;28;20223;-75
2021/12/30 03:47:58;;;;;;;10.47;2.57;;;11.10;99.90;;;;;;10425454;28;20748;-74
2021/12/30 03:53:01;;;;;;;8.67;1.90;;;11.00;99.90;;;;;;10441231;28;20220;-75
2021/12/30 03:58:02;;;;;;;9.57;2.10;;;11.00;99.90;;;;;;10439924;28;20674;-75
2021/12/30 04:03:04;;;;;;;9.80;1.90;;;10.90;99.90;;;;;;10424231;28;20224;-72
2021/12/30 04:08:07;;;;;;;13.57;2.27;;;10.90;99.90;;;;;;10438847;28;20245;-77
2021/12/30 04:13:08;;;;;;;6.77;2.07;;;10.90;99.90;;;;;;10429043;28;20374;-76
2021/12/30 04:18:08;;;;;;;13.60;2.23;;;11.00;99.90;;;;;;10430579;28;20679;-75
2021/12/30 04:23:09;;;;;;;12.13;2.33;;;11.00;99.90;;;;;;10436036;28;20221;-75
2021/12/30 04:28:10;;;;;;;8.17;1.90;;;11.00;99.90;;;;;;10427131;28;20229;-75
2021/12/30 04:33:11;;;;;;;7.57;1.90;;;11.00;99.90;;;;;;10424542;28;20244;-75
2021/12/30 04:38:11;;;;;;;9.47;2.20;;;11.00;99.90;;;;;;10431821;28;20421;-74
2021/12/30 04:43:12;;;;;;;7.77;2.20;;;11.10;99.90;;;;;;10435699;28;20743;-74
2021/12/30 04:48:14;;;;;;;6.33;2.20;;;11.20;99.90;;;;;;10430952;28;20613;-74
2021/12/30 04:53:15;;;;;;;7.57;2.37;;;11.30;99.90;;;;;;10430394;28;20281;-74
2021/12/30 04:58:16;;;;;;;8.73;2.20;;;11.40;99.90;;;;;;10432447;28;20260;-74
2021/12/30 05:03:17;;;;;;;5.13;1.90;;;11.40;99.90;;;;;;10426166;28;20230;-74
2021/12/30 05:08:24;;;;;;;5.77;2.27;;;11.50;99.90;;;;;;10424907;28;20221;-73
2021/12/30 05:13:25;;;;;;;6.47;2.83;;;11.50;99.90;;;;;;10422395;28;20274;-74
2021/12/30 05:18:31;;;;;;;7.73;3.10;;;11.50;99.90;;;;;;10432206;28;20591;-74
2021/12/30 05:23:32;;;;;;;7.57;2.70;;;11.60;99.90;;;;;;10425654;28;20599;-74
2021/12/30 05:28:32;;;;;;;6.83;3.23;;;11.60;99.90;;;;;;10427335;28;21048;-74
2021/12/30 05:33:33;;;;;;;9.13;2.90;;;11.60;99.90;;;;;;10437145;28;20247;-74
2021/12/30 05:38:34;;;;;;;7.20;2.70;;;11.70;99.90;;;;;;10430083;28;21095;-75
2021/12/30 05:43:34;;;;;;;8.13;3.00;;;11.70;99.90;;;;;;10427487;28;20212;-74
2021/12/30 05:48:35;;;;;;;5.67;2.40;;;11.80;99.90;;;;;;10429496;28;20227;-75
2021/12/30 05:53:36;;;;;;;5.13;2.57;;;11.80;99.90;;;;;;10436523;28;20235;-75
2021/12/30 05:58:36;;;;;;;5.13;2.50;;;11.90;99.90;;;;;;10446022;28;20240;-73
2021/12/30 06:03:37;;;;;;;9.27;2.90;;;11.90;99.90;;;;;;10432467;28;20232;-73
2021/12/30 06:08:37;;;;;;;6.33;2.57;;;11.90;99.90;;;;;;10444449;28;20238;-74
2021/12/30 06:13:38;;;;;;;4.30;2.03;;;12.00;99.90;;;;;;10429607;28;20694;-73
2021/12/30 06:18:39;;;;;;;4.60;2.23;;;12.10;99.90;;;;;;10441535;28;20316;-73
2021/12/30 06:23:39;;;;;;;6.63;2.53;;;12.10;99.90;;;;;;10442776;28;20212;-74
2021/12/30 06:28:40;;;;;;;3.37;1.90;;;12.20;99.90;;;;;;10430303;28;20231;-73
2021/12/30 06:33:40;;;;;;;4.43;2.20;;;12.20;99.90;;;;;;10437238;28;20311;-74
2021/12/30 06:38:41;;;;;;;3.93;1.80;;;12.30;99.90;;;;;;10437172;28;20298;-73
2021/12/30 06:43:42;;;;;;;5.67;2.17;;;12.30;99.90;;;;;;10440276;28;20222;-75
2021/12/30 06:48:45;;;;;;;5.40;1.90;;;12.40;99.90;;;;;;10435782;28;20328;-74
2021/12/30 06:53:46;;;;;;;4.13;2.37;;;12.40;99.90;;;;;;10434158;28;20234;-74
2021/12/30 06:58:47;;;;;;;3.03;1.70;;;12.40;99.90;;;;;;10428186;28;20702;-73
2021/12/30 07:03:47;;;;;;;6.27;1.80;;;12.40;99.90;;;;;;10424126;28;20228;-74
2021/12/30 07:08:48;;;;;;;2.40;1.40;;;12.50;99.90;;;;;;10427253;28;20221;-73
2021/12/30 07:13:49;;;;;;;3.70;1.27;;;12.60;99.90;;;;;;10433276;28;20283;-74
2021/12/30 07:18:49;;;;;;;2.10;1.30;;;12.60;99.90;;;;;;10434313;28;20575;-74
2021/12/30 07:23:50;;;;;;;1.63;1.23;;;12.60;99.90;;;;;;10441827;28;20588;-73
2021/12/30 07:28:51;;;;;;;6.23;1.00;;;12.60;99.90;;;;;;10429790;28;20217;-72
2021/12/30 07:33:51;;;;;;;1.13;0.80;;;12.60;99.90;;;;;;10434022;28;20696;-75
2021/12/30 07:38:52;;;;;;;1.90;1.20;;;12.60;99.90;;;;;;10438295;28;20267;-75
2021/12/30 07:43:53;;;;;;;0.70;0.70;;;12.70;99.90;;;;;;10422073;28;20218;-75
2021/12/30 07:48:53;;;;;;;0.93;0.80;;;12.70;99.90;;;;;;10433895;28;20304;-75
2021/12/30 07:53:54;;;;;;;3.27;1.00;;;12.70;99.90;;;;;;10431063;28;20212;-74
2021/12/30 07:58:54;;;;;;;6.70;1.13;;;12.80;99.90;;;;;;10427031;28;20359;-75
2021/12/30 08:03:55;;;;;;;1.13;0.60;;;12.80;99.90;;;;;;10439539;28;20697;-74
2021/12/30 08:08:55;;;;;;;1.60;0.77;;;12.90;99.90;;;;;;10435661;28;20216;-75
2021/12/30 08:13:56;;;;;;;1.17;0.67;;;13.00;99.90;;;;;;10427304;28;20235;-73
2021/12/30 08:18:58;;;;;;;5.03;1.10;;;13.10;99.90;;;;;;10441601;28;20254;-78
2021/12/30 08:23:59;;;;;;;0.53;0.50;;;13.20;99.90;;;;;;10450978;28;20219;-77
2021/12/30 08:28:59;;;;;;;1.30;0.77;;;13.40;99.90;;;;;;10431719;28;20767;-76
2021/12/30 08:34:01;;;;;;;1.33;0.60;;;13.50;99.90;;;;;;10433309;28;20673;-75
2021/12/30 08:39:02;;;;;;;3.13;0.73;;;13.70;99.90;;;;;;10441543;28;20595;-73
2021/12/30 08:44:03;;;;;;;2.77;0.70;;;13.90;99.90;;;;;;10425465;28;20686;-75
2021/12/30 08:49:04;;;;;;;0.93;0.57;;;14.00;99.90;;;;;;10438184;28;20253;-75
2021/12/30 08:54:04;;;;;;;0.80;0.50;;;14.10;99.90;;;;;;10420720;28;20217;-73
2021/12/30 08:59:05;;;;;;;1.30;0.60;;;14.20;99.90;;;;;;10429904;28;20310;-74
2021/12/30 09:04:05;;;;;;;1.50;0.80;;;14.30;99.90;;;;;;10430454;28;20635;-77
2021/12/30 09:09:06;;;;;;;1.63;1.00;;;14.40;99.90;;;;;;10431005;28;20273;-74
2021/12/30 09:14:07;;;;;;;0.97;0.87;;;14.50;99.90;;;;;;10429494;28;20222;-73
2021/12/30 09:19:07;;;;;;;1.13;0.80;;;14.50;99.90;;;;;;10437203;28;20231;-74
2021/12/30 09:24:10;;;;;;;1.43;1.00;;;14.50;99.90;;;;;;10429815;28;20284;-73
2021/12/30 09:29:11;;;;;;;2.90;0.80;;;14.40;99.90;;;;;;10424004;28;20222;-77
2021/12/30 09:34:13;;;;;;;2.50;0.87;;;14.50;99.90;;;;;;10426253;28;20222;-74
2021/12/30 09:39:15;;;;;;;2.90;1.33;;;14.50;99.90;;;;;;10437966;28;20236;-76
2021/12/30 09:44:18;;;;;;;0.77;0.63;;;14.50;99.90;;;;;;10443311;28;20748;-76
2021/12/30 09:49:20;;;;;;;1.03;0.90;;;14.70;99.90;;;;;;10449938;28;20079;-75
2021/12/30 09:54:21;;;;;;;2.53;1.83;;;14.70;99.90;;;;;;10431313;28;20225;-74
2021/12/30 09:59:27;;;;;;;0.90;0.70;;;14.70;99.90;;;;;;10434494;28;20223;-77
2021/12/30 10:04:32;;;;;;;0.63;0.60;;;14.90;99.90;;;;;;10429574;28;20229;-72
2021/12/30 10:09:50;;;;;;;0.50;0.50;;;15.30;99.90;;;;;;10421013;28;20336;-75
2021/12/30 10:14:53;;;;;;;0.80;0.67;;;15.60;99.90;;;;;;10441749;28;20614;-77
2021/12/30 10:19:55;;;;;;;1.17;0.70;;;15.90;99.90;;;;;;10441152;28;20298;-75
2021/12/30 10:24:56;;;;;;;4.40;0.90;;;16.40;99.90;;;;;;10424747;28;20221;-70
2021/12/30 10:29:57;;;;;;;1.00;1.00;;;16.40;99.90;;;;;;10429252;28;20220;-73
2021/12/30 10:35:16;;;;;;;1.73;1.13;;;16.20;99.90;;;;;;10424584;28;20606;-73
2021/12/30 10:40:33;;;;;;;2.33;1.10;;;16.10;99.90;;;;;;10434115;28;20221;-74
2021/12/30 10:45:33;;;;;;;1.30;1.20;;;16.00;99.90;;;;;;10447317;28;20397;-73
2021/12/30 10:50:34;;;;;;;1.30;1.20;;;16.00;99.90;;;;;;10441939;28;20275;-71
2021/12/30 10:55:35;;;;;;;2.13;1.90;;;15.90;99.90;;;;;;10440289;28;20234;-72
2021/12/30 11:00:36;;;;;;;1.67;1.10;;;15.90;99.90;;;;;;10435401;28;20272;-72
2021/12/30 11:05:37;;;;;;;2.00;1.63;;;15.90;99.90;;;;;;10436759;28;20243;-75
2021/12/30 11:10:38;;;;;;;4.03;1.20;;;15.80;99.90;;;;;;10428323;28;20227;-77
2021/12/30 11:15:41;;;;;;;1.17;1.07;;;15.70;99.90;;;;;;10435093;28;20234;-77
2021/12/30 11:20:45;;;;;;;2.23;1.20;;;15.70;99.90;;;;;;10431047;28;20693;-75
2021/12/30 11:25:46;;;;;;;1.03;0.93;;;15.60;99.90;;;;;;10441470;28;20219;-78
2021/12/30 11:30:58;;;;;;;1.80;0.93;;;15.60;99.90;;;;;;10423328;28;20258;-77
2021/12/30 11:41:08;;;;;;;1.40;1.30;;;15.80;99.90;;;;;;10431182;28;20235;-77
2021/12/30 11:51:57;;;;;;;1.10;1.10;;;16.30;99.90;;;;;;10431576;28;20238;-78
2021/12/30 11:57:32;;;;;;;2.03;1.00;;;16.50;99.90;;;;;;8713589;26;20672;-78
2021/12/30 12:02:44;;;;;;;2.17;1.67;;;16.60;99.90;;;;;;8717337;26;20578;-75
2021/12/30 12:08:02;;;;;;;1.47;1.20;;;16.50;99.90;;;;;;10429200;28;20332;-73
2021/12/30 12:13:30;;;;;;;0.87;0.87;;;16.30;99.90;;;;;;10411781;28;20224;-74
2021/12/30 12:18:32;;;;;;;2.17;1.33;;;16.30;99.90;;;;;;10395197;28;20306;-73
2021/12/30 12:23:34;;;;;;;1.33;1.00;;;16.30;99.90;;;;;;10379148;28;20345;-74
2021/12/30 12:28:38;;;;;;;1.30;1.20;;;16.20;99.90;;;;;;10383471;28;20355;-75
2021/12/30 12:33:42;;;;;;;1.27;1.00;;;16.00;99.90;;;;;;10391234;28;20270;-75
2021/12/30 12:38:48;;;;;;;2.23;1.23;;;15.80;99.90;;;;;;10387050;28;20262;-74
2021/12/30 12:44:04;;;;;;;1.50;1.13;;;15.90;99.90;;;;;;10397938;28;20685;-75
2021/12/30 12:49:06;;;;;;;1.30;1.20;;;15.90;99.90;;;;;;10395594;28;20264;-74
2021/12/30 12:54:07;;;;;;;1.80;1.10;;;16.00;99.90;;;;;;10381823;28;20235;-74
2021/12/30 12:59:13;;;;;;;1.50;1.40;;;16.20;99.90;;;;;;10391512;28;20226;-71
2021/12/30 13:04:14;;;;;;;1.93;1.30;;;16.30;99.90;;;;;;10386421;28;20734;-73
2021/12/30 13:09:20;;;;;;;1.30;1.20;;;16.10;99.90;;;;;;10397805;28;20226;-74
2021/12/30 13:14:27;;;;;;;1.60;1.00;;;16.00;99.90;;;;;;10395071;28;20735;-75
2021/12/30 13:19:30;;;;;;;1.17;1.17;;;16.10;99.90;;;;;;10399225;28;20589;-75
2021/12/30 13:24:42;;;;;;;1.43;1.33;;;16.00;99.90;;;;;;10394351;28;20227;-74
2021/12/30 13:29:50;;;;;;;3.17;1.23;;;16.00;99.90;;;;;;10389926;28;20223;-74
2021/12/30 13:34:57;;;;;;;1.03;0.90;;;15.90;99.90;;;;;;10388354;28;20274;-75
2021/12/30 13:39:58;;;;;;;3.37;1.07;;;15.80;99.90;;;;;;10436020;28;20230;-75
2021/12/30 13:45:03;;;;;;;0.77;0.47;;;15.70;99.90;;;;;;10429099;28;20270;-74
2021/12/30 13:50:13;;;;;;;1.20;0.70;;;15.60;99.90;;;;;;10396008;28;20315;-72
2021/12/30 13:55:17;;;;;;;1.90;0.70;;;15.40;99.90;;;;;;10395501;28;20219;-73
2021/12/30 14:00:18;;;;;;;1.13;0.97;;;15.40;99.90;;;;;;10438846;28;20200;-72
2021/12/30 14:05:23;;;;;;;1.50;1.10;;;15.50;99.90;;;;;;10426830;28;20543;-72
2021/12/30 14:10:24;;;;;;;2.10;1.10;;;15.50;99.90;;;;;;10439922;28;20235;-73
2021/12/30 14:15:25;;;;;;;2.57;1.20;;;15.60;99.90;;;;;;10433632;28;20603;-74
2021/12/30 14:20:26;;;;;;;1.10;1.00;;;15.60;99.90;;;;;;10444725;28;20252;-74
2021/12/30 14:25:44;;;;;;;0.97;0.97;;;15.50;99.90;;;;;;10431361;28;20203;-73
2021/12/30 14:30:46;;;;;;;3.23;0.90;;;15.40;99.90;;;;;;10447179;28;20226;-73
2021/12/30 14:35:46;;;;;;;2.17;0.90;;;15.40;99.90;;;;;;10436681;28;20712;-73
2021/12/30 14:41:06;;;;;;;1.60;1.17;;;15.30;99.90;;;;;;10440257;28;20246;-74
2021/12/30 14:46:13;;;;;;;1.60;1.00;;;15.30;99.90;;;;;;10437227;28;20637;-74
2021/12/30 14:51:18;;;;;;;2.27;1.03;;;15.10;99.90;;;;;;10436264;28;20718;-73
2021/12/30 14:56:19;;;;;;;1.23;1.13;;;15.00;99.90;;;;;;10438093;28;20738;-73
2021/12/30 15:01:20;;;;;;;1.30;1.20;;;15.00;99.90;;;;;;10437602;28;20333;-74
2021/12/30 15:06:22;;;;;;;1.97;1.30;;;14.90;99.90;;;;;;10429716;28;20237;-74
2021/12/30 15:11:24;;;;;;;1.53;1.17;;;14.80;99.90;;;;;;10436258;28;20235;-75
2021/12/30 15:16:24;;;;;;;1.50;1.40;;;14.70;99.90;;;;;;10436948;28;20408;-74
2021/12/30 15:21:28;;;;;;;1.03;1.00;;;14.60;99.90;;;;;;10437680;28;20236;-73
2021/12/30 15:26:29;;;;;;;1.63;0.97;;;14.60;99.90;;;;;;10436668;28;20775;-74
2021/12/30 15:31:29;;;;;;;1.07;0.80;;;14.60;99.90;;;;;;10433388;28;20214;-73
2021/12/30 15:36:30;;;;;;;1.30;1.20;;;14.60;99.90;;;;;;10432458;28;20322;-72
2021/12/30 15:41:31;;;;;;;1.00;0.90;;;14.60;99.90;;;;;;10438220;28;20262;-73
2021/12/30 15:46:32;;;;;;;1.33;1.10;;;14.60;99.90;;;;;;10436409;28;20569;-73
2021/12/30 15:51:37;;;;;;;2.23;1.17;;;14.60;99.90;;;;;;10428312;28;21018;-73
2021/12/30 15:56:37;;;;;;;2.10;1.10;;;14.60;99.90;;;;;;10432643;28;20238;-73
2021/12/30 16:01:39;;;;;;;1.67;1.43;;;14.60;99.90;;;;;;10438298;28;20763;-77
2021/12/30 16:06:41;;;;;;;3.40;1.60;;;14.50;99.90;;;;;;10425521;28;20226;-78
2021/12/30 16:11:45;;;;;;;1.97;1.40;;;14.40;99.90;;;;;;10427472;28;20226;-73
2021/12/30 16:16:45;;;;;;;4.30;1.60;;;14.30;99.90;;;;;;10426946;28;20237;-73
2021/12/30 16:21:50;;;;;;;2.43;1.27;;;14.30;99.90;;;;;;10432899;28;20627;-73
2021/12/30 16:26:51;;;;;;;2.53;1.53;;;14.30;99.90;;;;;;10440843;28;20268;-75
2021/12/30 16:31:51;;;;;;;3.27;1.33;;;14.20;99.90;;;;;;10425761;28;20245;-76
2021/12/30 16:36:52;;;;;;;4.10;1.83;;;14.20;99.90;;;;;;10433879;28;20240;-75
2021/12/30 16:41:54;;;;;;;4.13;1.53;;;14.10;99.90;;;;;;10432911;28;20257;-76
2021/12/30 16:46:54;;;;;;;2.00;1.67;;;14.00;99.90;;;;;;10433503;28;20248;-75
2021/12/30 16:51:56;;;;;;;3.20;1.40;;;14.00;99.90;;;;;;10443146;28;20248;-74
2021/12/30 16:56:57;;;;;;;3.23;1.47;;;13.90;99.90;;;;;;10431236;28;20235;-73
2021/12/30 17:01:58;;;;;;;4.23;1.53;;;13.90;99.90;;;;;;10441956;28;20222;-74
2021/12/30 17:07:04;;;;;;;4.00;1.33;;;13.90;99.90;;;;;;10432758;28;20233;-74
2021/12/30 17:12:05;;;;;;;3.30;1.63;;;13.90;99.90;;;;;;10436230;28;20743;-74
2021/12/30 17:17:07;;;;;;;2.73;1.07;;;13.90;99.90;;;;;;10433994;28;20243;-74
2021/12/30 17:22:11;;;;;;;4.30;1.20;;;13.80;99.90;;;;;;10429515;28;20280;-75
2021/12/30 17:27:14;;;;;;;3.07;1.70;;;13.90;99.90;;;;;;10430277;28;20266;-74
2021/12/30 17:32:15;;;;;;;3.80;1.60;;;13.90;99.90;;;;;;10421487;28;20288;-73
2021/12/30 17:37:16;;;;;;;4.93;1.83;;;13.90;99.90;;;;;;10431930;28;20227;-73
2021/12/30 17:42:17;;;;;;;3.87;1.57;;;13.80;99.90;;;;;;10439679;28;20224;-75
2021/12/30 17:47:18;;;;;;;3.83;1.80;;;13.80;99.90;;;;;;10436060;28;20701;-73
2021/12/30 17:52:18;;;;;;;3.33;1.80;;;13.80;99.90;;;;;;10455650;28;20222;-74
2021/12/30 17:57:19;;;;;;;2.83;1.80;;;13.80;99.90;;;;;;10440496;28;20750;-74
2021/12/30 18:02:19;;;;;;;4.90;1.73;;;13.80;99.90;;;;;;10437774;28;20254;-74
2021/12/30 18:07:20;;;;;;;3.50;1.80;;;13.80;99.90;;;;;;10450863;28;20287;-74
2021/12/30 18:12:25;;;;;;;6.70;1.97;;;13.80;99.90;;;;;;10430639;28;20218;-74
2021/12/30 18:17:27;;;;;;;4.40;1.87;;;13.80;99.90;;;;;;10442702;28;20233;-74
2021/12/30 18:22:29;;;;;;;4.67;1.70;;;13.70;99.90;;;;;;10451869;28;20229;-76
2021/12/30 18:27:30;;;;;;;3.43;2.00;;;13.70;99.90;;;;;;10449518;28;20266;-74
2021/12/30 18:32:31;;;;;;;4.93;2.23;;;13.70;99.90;;;;;;10448640;28;20576;-74
2021/12/30 18:37:31;;;;;;;4.03;1.80;;;13.70;99.90;;;;;;10439627;28;20233;-75
2021/12/30 18:42:32;;;;;;;5.93;2.30;;;13.70;99.90;;;;;;10457518;28;20221;-75
2021/12/30 18:47:34;;;;;;;4.00;2.07;;;13.70;99.90;;;;;;10443333;28;20221;-75
2021/12/30 18:52:34;;;;;;;3.60;1.80;;;13.70;99.90;;;;;;10442237;28;20228;-74
2021/12/30 18:57:36;;;;;;;6.20;2.57;;;13.70;99.90;;;;;;10432774;28;20626;-75
2021/12/30 19:02:36;;;;;;;3.63;1.90;;;13.70;99.90;;;;;;10458048;28;20291;-75
2021/12/30 19:07:40;;;;;;;3.57;2.57;;;13.70;99.90;;;;;;10422859;28;20253;-76
2021/12/30 19:12:46;;;;;;;5.23;2.33;;;13.70;99.90;;;;;;10428485;28;20769;-74
2021/12/30 19:17:47;;;;;;;2.80;2.20;;;13.70;99.90;;;;;;10428433;28;20996;-73
2021/12/30 19:22:50;;;;;;;3.97;2.13;;;13.70;99.90;;;;;;10435925;28;20227;-74
2021/12/30 19:27:53;;;;;;;4.27;2.10;;;13.70;99.90;;;;;;10430522;28;20221;-73
2021/12/30 19:32:55;;;;;;;4.13;1.93;;;13.70;99.90;;;;;;10448309;28;20808;-74
2021/12/30 19:37:56;;;;;;;2.50;2.10;;;13.70;99.90;;;;;;10449526;28;20226;-74
2021/12/30 19:43:03;;;;;;;4.90;2.10;;;13.70;99.90;;;;;;10444136;28;20218;-74
2021/12/30 19:48:05;;;;;;;3.33;2.00;;;13.70;99.90;;;;;;10445372;28;20233;-74
2021/12/30 19:53:07;;;;;;;4.47;2.10;;;13.70;99.90;;;;;;10436597;28;20957;-74
2021/12/30 19:58:08;;;;;;;3.80;2.20;;;13.60;99.90;;;;;;10434015;28;20221;-74
2021/12/30 20:03:09;;;;;;;4.43;2.07;;;13.60;99.90;;;;;;10432442;28;20233;-74
2021/12/30 20:08:10;;;;;;;4.00;1.60;;;13.60;99.90;;;;;;10434911;28;20233;-74
2021/12/30 20:13:11;;;;;;;3.03;1.60;;;13.60;99.90;;;;;;10444741;28;20227;-74
2021/12/30 20:18:11;;;;;;;3.87;2.20;;;13.60;99.90;;;;;;10439695;28;20316;-73
2021/12/30 20:23:18;;;;;;;3.73;2.20;;;13.50;99.90;;;;;;10431992;28;20229;-74
2021/12/30 20:28:19;;;;;;;5.27;2.37;;;13.40;99.90;;;;;;10432277;28;20230;-74
2021/12/30 20:33:21;;;;;;;5.77;2.27;;;13.40;99.90;;;;;;10434143;28;20230;-74
2021/12/30 20:38:21;;;;;;;3.07;2.20;;;13.20;99.90;;;;;;10433199;28;20602;-75
2021/12/30 20:43:22;;;;;;;4.20;2.60;;;13.00;99.90;;;;;;10424773;28;20283;-74
2021/12/30 20:48:25;;;;;;;5.87;2.80;;;12.90;99.90;;;;;;10427300;28;20220;-73
2021/12/30 20:53:25;;;;;;;4.37;2.67;;;12.90;99.90;;;;;;10428022;28;20665;-74
2021/12/30 20:58:26;;;;;;;5.83;2.87;;;12.90;99.90;;;;;;10419342;28;20317;-75
2021/12/30 21:03:31;;;;;;;5.07;2.83;;;13.00;99.90;;;;;;10430890;28;20312;-74
2021/12/30 21:08:35;;;;;;;4.13;2.23;;;13.00;99.90;;;;;;10431345;28;20303;-75
2021/12/30 21:13:35;;;;;;;6.47;2.83;;;13.10;99.90;;;;;;10424828;28;20221;-75
2021/12/30 21:18:37;;;;;;;6.87;2.73;;;13.20;99.90;;;;;;10433124;28;20232;-76
2021/12/30 21:23:37;;;;;;;7.53;2.80;;;13.20;99.90;;;;;;10431663;28;20893;-75
2021/12/30 21:28:38;;;;;;;4.10;2.77;;;13.10;99.90;;;;;;10421317;28;20226;-75
2021/12/30 21:33:42;;;;;;;6.57;3.03;;;13.00;99.90;;;;;;10455115;28;20217;-76
2021/12/30 21:38:46;;;;;;;5.17;3.17;;;12.90;99.90;;;;;;10437023;28;20245;-76
2021/12/30 21:43:48;;;;;;;5.60;3.10;;;12.90;99.90;;;;;;10430181;28;20257;-76
2021/12/30 21:48:52;;;;;;;5.30;3.10;;;12.90;99.90;;;;;;10439923;28;20328;-76
2021/12/30 21:53:53;;;;;;;8.83;3.00;;;13.00;99.90;;;;;;10446428;28;20239;-76
2021/12/30 21:58:54;;;;;;;4.43;2.63;;;13.00;99.90;;;;;;10430777;28;20229;-76
2021/12/30 22:03:58;;;;;;;7.90;3.20;;;13.10;99.90;;;;;;10433863;28;20227;-76
2021/12/30 22:08:59;;;;;;;8.67;3.27;;;13.10;99.90;;;;;;10419025;28;20635;-76
2021/12/30 22:14:00;;;;;;;5.70;2.20;;;13.10;99.90;;;;;;10401645;28;20222;-75
2021/12/30 22:19:04;;;;;;;5.83;3.03;;;13.10;99.90;;;;;;10395564;28;20229;-75
2021/12/30 22:24:05;;;;;;;7.43;3.50;;;13.00;99.90;;;;;;10388325;28;20681;-75
2021/12/30 22:29:07;;;;;;;8.97;3.47;;;12.80;99.90;;;;;;10390432;28;20219;-76
2021/12/30 22:34:08;;;;;;;5.90;3.27;;;12.70;99.90;;;;;;10402553;28;20288;-75
2021/12/30 22:39:08;;;;;;;7.70;3.00;;;12.60;99.90;;;;;;10403143;28;20233;-76
2021/12/30 22:44:13;;;;;;;7.40;3.90;;;12.50;99.90;;;;;;10396989;28;20221;-74
2021/12/30 22:49:15;;;;;;;6.97;2.93;;;12.40;99.90;;;;;;10413597;28;20217;-75
2021/12/30 22:54:15;;;;;;;7.07;4.20;;;12.50;99.90;;;;;;10386562;28;20229;-75
2021/12/30 22:59:16;;;;;;;6.40;3.60;;;12.70;99.90;;;;;;10427522;28;20274;-74
2021/12/30 23:04:23;;;;;;;7.07;2.87;;;12.70;99.90;;;;;;10389029;28;20230;-75
2021/12/30 23:09:25;;;;;;;8.83;3.20;;;12.80;99.90;;;;;;10420834;28;20269;-75
2021/12/30 23:14:26;;;;;;;4.53;2.80;;;12.90;99.90;;;;;;10401732;28;20232;-74
2021/12/30 23:19:29;;;;;;;6.27;3.10;;;12.90;99.90;;;;;;10416802;28;20233;-75
2021/12/30 23:24:31;;;;;;;4.93;3.10;;;12.90;99.90;;;;;;10390875;28;20249;-74
2021/12/30 23:29:32;;;;;;;4.77;2.87;;;13.00;99.90;;;;;;10398394;28;20599;-75
2021/12/30 23:34:33;;;;;;;6.93;3.03;;;13.00;99.90;;;;;;10398409;28;20228;-74
2021/12/30 23:39:33;;;;;;;5.40;2.80;;;13.00;99.90;;;;;;10401076;28;20279;-76
2021/12/30 23:44:34;;;;;;;6.77;2.70;;;13.00;99.90;;;;;;10398826;28;20258;-75
2021/12/30 23:49:35;;;;;;;4.73;2.83;;;13.00;99.90;;;;;;10391617;28;20225;-75
2021/12/30 23:54:36;;;;;;;6.23;2.73;;;13.00;99.90;;;;;;10383721;28;20316;-75
2021/12/30 23:59:36;;;;;;;9.60;3.17;;;12.90;99.90;;;;;;10387771;28;20254;-75
